createdAt,value
2023-03-21T00:01:54.313Z,6.45
2023-03-21T00:04:22.966Z,5.38
2023-03-21T00:06:49.706Z,9.70
2023-03-21T00:09:16.540Z,4.60
2023-03-21T00:11:43.315Z,8.15
2023-03-21T00:14:14.451Z,7.68
2023-03-21T00:16:41.612Z,9.35
2023-03-21T00:19:09.737Z,8.88
2023-03-21T00:21:59.242Z,7.00
2023-03-21T00:24:25.460Z,9.25
2023-03-21T00:26:52.063Z,7.38
2023-03-21T00:29:18.998Z,5.38
2023-03-21T00:31:45.538Z,7.72
2023-03-21T00:36:39.645Z,7.85
2023-03-21T00:39:06.366Z,7.13
2023-03-21T00:41:45.930Z,8.07
2023-03-21T00:44:15.957Z,4.90
2023-03-21T00:46:54.186Z,7.80
2023-03-21T00:49:27.719Z,5.80
2023-03-21T00:51:57.146Z,2.33
2023-03-21T00:54:23.739Z,8.13
2023-03-21T00:56:50.218Z,8.10
2023-03-21T00:59:17.303Z,7.25
2023-03-21T01:01:46.537Z,5.55
2023-03-21T01:04:16.637Z,3.58
2023-03-21T01:06:44.566Z,2.58
2023-03-21T01:09:26.137Z,7.65
2023-03-21T01:11:53.644Z,7.47
2023-03-21T01:14:23.702Z,8.30
2023-03-21T01:16:52.855Z,6.93
2023-03-21T01:19:30.950Z,5.25
2023-03-21T01:22:04.437Z,3.33
2023-03-21T01:24:31.264Z,3.05
2023-03-21T01:26:58.779Z,4.10
2023-03-21T01:29:25.226Z,5.78
2023-03-21T01:31:51.698Z,3.05
2023-03-21T01:34:18.218Z,5.53
2023-03-21T01:36:45.022Z,3.95
2023-03-21T01:39:11.575Z,4.88
2023-03-21T01:41:43.493Z,5.82
2023-03-21T01:44:20.056Z,5.18
2023-03-21T01:47:11.602Z,2.75
2023-03-21T01:49:48.528Z,6.40
2023-03-21T01:52:35.334Z,4.03
2023-03-21T01:55:06.925Z,4.72
2023-03-21T01:57:54.937Z,7.20
2023-03-21T02:00:29.566Z,2.97
2023-03-21T02:03:06.164Z,3.10
2023-03-21T02:05:59.120Z,8.63
2023-03-21T02:08:38.374Z,2.80
2023-03-21T02:11:07.029Z,7.07
2023-03-21T02:13:33.493Z,3.03
2023-03-21T02:16:17.128Z,7.35
2023-03-21T02:19:02.273Z,9.20
2023-03-21T02:22:05.696Z,1.50
2023-03-21T02:24:48.759Z,7.80
2023-03-21T02:30:20.213Z,9.18
2023-03-21T02:33:02.019Z,8.50
2023-03-21T02:38:01.831Z,9.63
2023-03-21T02:40:43.270Z,5.53
2023-03-21T02:43:23.398Z,4.13
2023-03-21T02:46:08.558Z,4.15
2023-03-21T02:48:50.274Z,8.43
2023-03-21T02:51:21.100Z,4.75
2023-03-21T02:54:13.039Z,2.90
2023-03-21T02:56:41.379Z,6.10
2023-03-21T02:59:08.801Z,9.23
2023-03-21T03:01:35.543Z,3.72
2023-03-21T03:04:02.122Z,7.22
2023-03-21T03:06:42.032Z,6.18
2023-03-21T03:09:48.167Z,7.78
2023-03-21T03:12:34.249Z,7.18
2023-03-21T03:15:28.364Z,9.10
2023-03-21T03:18:27.701Z,4.22
2023-03-21T03:21:27.856Z,5.68
2023-03-21T03:24:23.583Z,9.80
2023-03-21T03:26:59.191Z,8.93
2023-03-21T03:29:28.622Z,8.10
2023-03-21T03:32:03.715Z,4.40
2023-03-21T03:34:34.771Z,10.38
2023-03-21T03:37:05.335Z,8.63
2023-03-21T03:39:43.691Z,5.53
2023-03-21T03:42:27.900Z,8.60
2023-03-21T03:44:56.156Z,12.30
2023-03-21T03:47:59.414Z,8.13
2023-03-21T03:50:38.250Z,9.57
2023-03-21T03:53:20.178Z,10.27
2023-03-21T03:55:49.191Z,10.40
2023-03-21T03:58:23.826Z,9.32
2023-03-21T04:00:52.441Z,11.10
2023-03-21T04:03:19.026Z,9.25
2023-03-21T04:05:48.141Z,11.02
2023-03-21T04:08:15.463Z,10.65
2023-03-21T04:10:42.916Z,10.90
2023-03-21T04:13:09.688Z,10.93
2023-03-21T04:15:36.327Z,9.65
2023-03-21T04:18:03.354Z,5.25
2023-03-21T04:20:36.490Z,12.88
2023-03-21T04:23:05.000Z,11.60
2023-03-21T04:25:35.033Z,8.10
2023-03-21T04:28:02.492Z,9.88
2023-03-21T04:30:29.281Z,9.98
2023-03-21T04:33:01.039Z,7.25
2023-03-21T04:35:28.461Z,9.70
2023-03-21T04:37:55.854Z,8.88
2023-03-21T04:40:22.420Z,10.00
2023-03-21T04:42:49.084Z,10.45
2023-03-21T04:45:16.689Z,10.40
2023-03-21T04:47:43.253Z,8.90
2023-03-21T04:50:11.045Z,9.55
2023-03-21T04:52:37.523Z,10.38
2023-03-21T04:55:04.441Z,10.00
2023-03-21T04:57:31.045Z,9.52
2023-03-21T04:59:57.463Z,9.55
2023-03-21T05:02:23.972Z,10.23
2023-03-21T05:04:50.608Z,10.77
2023-03-21T05:07:17.164Z,9.95
2023-03-21T05:09:43.622Z,10.23
2023-03-21T05:12:10.051Z,10.63
2023-03-21T05:14:36.545Z,9.73
2023-03-21T05:17:05.212Z,10.18
2023-03-21T05:19:35.889Z,10.57
2023-03-21T05:22:08.602Z,8.63
2023-03-21T05:24:37.393Z,11.10
2023-03-21T05:27:03.874Z,10.98
2023-03-21T05:29:32.691Z,9.57
2023-03-21T05:32:00.958Z,9.68
2023-03-21T05:34:28.315Z,10.88
2023-03-21T05:36:55.233Z,9.63
2023-03-21T05:39:21.886Z,9.68
2023-03-21T05:41:48.409Z,11.45
2023-03-21T05:44:14.862Z,10.13
2023-03-21T05:46:41.460Z,9.20
2023-03-21T05:49:07.905Z,9.70
2023-03-21T05:51:34.439Z,10.40
2023-03-21T05:54:00.880Z,8.38
2023-03-21T05:56:27.362Z,9.82
2023-03-21T05:58:53.944Z,8.77
2023-03-21T06:01:20.476Z,10.05
2023-03-21T06:03:47.024Z,10.15
2023-03-21T06:06:13.525Z,10.20
2023-03-21T06:08:40.150Z,10.50
2023-03-21T06:11:19.397Z,8.63
2023-03-21T06:13:45.909Z,8.98
2023-03-21T06:16:12.790Z,9.10
2023-03-21T06:18:39.370Z,10.85
2023-03-21T06:21:06.083Z,10.75
2023-03-21T06:23:32.686Z,11.57
2023-03-21T06:25:59.168Z,10.98
2023-03-21T06:28:25.740Z,9.90
2023-03-21T06:30:52.431Z,10.50
2023-03-21T06:33:18.941Z,10.27
2023-03-21T06:35:51.274Z,10.27
2023-03-21T06:38:17.823Z,11.40
2023-03-21T06:40:46.949Z,11.80
2023-03-21T06:43:14.169Z,12.45
2023-03-21T06:45:40.960Z,11.85
2023-03-21T06:48:09.274Z,11.02
2023-03-21T06:50:36.142Z,12.77
2023-03-21T06:53:02.831Z,13.02
2023-03-21T06:55:29.381Z,11.73
2023-03-21T06:57:57.540Z,12.65
2023-03-21T07:00:24.632Z,12.40
2023-03-21T07:02:51.824Z,14.40
2023-03-21T07:05:18.489Z,12.18
2023-03-21T07:07:45.035Z,11.95
2023-03-21T07:10:11.794Z,11.77
2023-03-21T07:12:38.283Z,12.00
2023-03-21T07:15:07.206Z,13.30
2023-03-21T07:17:34.184Z,11.93
2023-03-21T07:20:00.653Z,11.60
2023-03-21T07:22:27.193Z,11.60
2023-03-21T07:25:04.398Z,10.93
2023-03-21T07:27:31.975Z,10.27
2023-03-21T07:29:58.526Z,10.90
2023-03-21T07:32:29.859Z,8.98
2023-03-21T07:34:56.632Z,10.10
2023-03-21T07:37:24.007Z,5.15
2023-03-21T07:39:51.457Z,8.75
2023-03-21T07:42:18.740Z,6.15
2023-03-21T07:44:45.256Z,7.95
2023-03-21T07:47:11.735Z,2.72
2023-03-21T07:49:38.243Z,8.40
2023-03-21T07:52:06.754Z,3.80
2023-03-21T07:54:33.498Z,8.13
2023-03-21T07:57:00.058Z,4.10
2023-03-21T07:59:26.696Z,7.97
2023-03-21T08:01:53.164Z,8.73
2023-03-21T08:04:19.906Z,8.15
2023-03-21T08:06:46.390Z,3.17
2023-03-21T08:09:12.941Z,7.28
2023-03-21T08:11:40.635Z,2.15
2023-03-21T08:14:07.135Z,7.97
2023-03-21T08:16:33.748Z,1.45
2023-03-21T08:19:00.292Z,7.88
2023-03-21T08:21:27.521Z,4.78
2023-03-21T08:23:54.292Z,5.25
2023-03-21T08:26:21.339Z,7.93
2023-03-21T08:28:47.965Z,3.97
2023-03-21T08:31:15.056Z,5.47
2023-03-21T08:33:41.580Z,9.82
2023-03-21T08:36:08.725Z,7.70
2023-03-21T08:38:35.890Z,9.40
2023-03-21T08:41:02.939Z,9.07
2023-03-21T08:43:29.539Z,6.60
2023-03-21T08:45:56.474Z,5.47
2023-03-21T08:48:23.549Z,3.15
2023-03-21T08:50:50.316Z,7.32
2023-03-21T08:53:16.849Z,5.75
2023-03-21T08:55:44.392Z,7.07
2023-03-21T08:58:11.310Z,7.80
2023-03-21T09:00:38.123Z,6.70
2023-03-21T09:03:05.070Z,3.30
2023-03-21T09:05:31.924Z,6.38
2023-03-21T09:07:58.503Z,6.43
2023-03-21T09:10:25.027Z,6.70
2023-03-21T09:12:53.290Z,3.67
2023-03-21T09:15:21.588Z,8.40
2023-03-21T09:17:52.439Z,4.85
2023-03-21T09:20:31.214Z,7.80
2023-03-21T09:22:59.137Z,6.57
2023-03-21T09:25:30.995Z,5.07
2023-03-21T09:27:58.157Z,6.47
2023-03-21T09:30:26.498Z,4.32
2023-03-21T09:32:55.541Z,5.80
2023-03-21T09:35:22.652Z,2.88
2023-03-21T09:37:49.941Z,2.65
2023-03-21T09:40:58.176Z,3.88
2023-03-21T09:44:03.643Z,5.18
2023-03-21T09:46:55.076Z,5.82
2023-03-21T09:49:31.346Z,5.70
2023-03-21T09:52:05.569Z,4.57
2023-03-21T09:54:43.899Z,5.05
2023-03-21T09:57:36.452Z,7.95
2023-03-21T10:00:14.400Z,5.55
2023-03-21T10:02:47.179Z,7.55
2023-03-21T10:05:26.068Z,4.93
2023-03-21T10:08:07.109Z,2.70
2023-03-21T10:10:48.066Z,1.27
2023-03-21T10:13:23.725Z,2.22
2023-03-21T10:15:50.370Z,3.08
2023-03-21T10:18:24.822Z,6.78
2023-03-21T10:20:52.171Z,3.43
2023-03-21T10:23:22.657Z,7.15
2023-03-21T10:25:54.925Z,7.38
2023-03-21T10:28:27.158Z,8.02
2023-03-21T10:31:02.264Z,7.25
2023-03-21T10:33:38.718Z,2.50
2023-03-21T10:36:11.561Z,7.45
2023-03-21T10:38:43.529Z,2.45
2023-03-21T10:41:11.527Z,7.00
2023-03-21T10:43:40.945Z,7.47
2023-03-21T10:46:19.050Z,2.70
2023-03-21T10:48:52.423Z,4.25
2023-03-21T10:51:27.683Z,4.15
2023-03-21T10:53:57.804Z,3.15
2023-03-21T10:56:29.335Z,4.00
2023-03-21T10:59:01.418Z,2.55
2023-03-21T11:01:41.266Z,2.25
2023-03-21T11:04:09.502Z,2.58
2023-03-21T11:06:40.822Z,2.92
2023-03-21T11:09:13.187Z,1.60
2023-03-21T11:12:11.001Z,6.07
2023-03-21T11:14:43.249Z,2.55
2023-03-21T11:17:22.212Z,2.95
2023-03-21T11:19:49.901Z,2.70
2023-03-21T11:22:18.390Z,5.72
2023-03-21T11:24:51.382Z,4.80
2023-03-21T11:27:18.478Z,4.88
2023-03-21T11:29:51.200Z,5.53
2023-03-21T11:32:22.470Z,4.45
2023-03-21T11:35:11.115Z,4.93
2023-03-21T11:37:37.524Z,4.72
2023-03-21T11:40:13.504Z,6.47
2023-03-21T11:42:48.266Z,5.90
2023-03-21T11:45:36.005Z,4.53
2023-03-21T11:48:13.032Z,4.45
2023-03-21T11:50:47.370Z,4.97
2023-03-21T11:53:29.176Z,5.35
2023-03-21T11:56:19.107Z,3.80
2023-03-21T11:58:51.494Z,2.60
2023-03-21T12:01:49.506Z,3.22
2023-03-21T12:04:44.485Z,3.80
2023-03-21T12:07:16.987Z,2.47
2023-03-21T12:09:48.591Z,4.80
2023-03-21T12:12:50.414Z,4.05
2023-03-21T12:15:22.780Z,5.43
2023-03-21T12:17:52.311Z,1.50
2023-03-21T12:20:48.327Z,2.33
2023-03-21T12:23:39.672Z,5.03
2023-03-21T12:26:18.474Z,3.55
2023-03-21T12:29:27.156Z,5.03
2023-03-21T12:32:21.510Z,1.70
2023-03-21T12:35:08.345Z,2.80
2023-03-21T12:37:52.025Z,1.92
2023-03-21T12:40:39.510Z,2.63
2023-03-21T12:43:12.049Z,2.70
2023-03-21T12:45:47.342Z,3.00
2023-03-21T12:48:32.975Z,4.78
2023-03-21T12:51:02.330Z,3.60
2023-03-21T12:53:42.896Z,3.22
2023-03-21T12:56:16.885Z,1.92
2023-03-21T12:58:52.338Z,4.00
2023-03-21T13:01:22.046Z,3.95
2023-03-21T13:04:08.111Z,3.92
2023-03-21T13:06:36.591Z,1.35
2023-03-21T13:09:13.000Z,2.15
2023-03-21T13:11:40.069Z,2.22
2023-03-21T13:14:08.927Z,2.70
2023-03-21T13:16:41.393Z,2.58
2023-03-21T13:19:16.599Z,2.60
2023-03-21T13:22:16.148Z,3.40
2023-03-21T13:24:49.667Z,2.58
2023-03-21T13:27:36.957Z,3.28
2023-03-21T13:30:07.328Z,1.50
2023-03-21T13:32:44.318Z,2.95
2023-03-21T13:35:15.946Z,2.95
2023-03-21T13:37:51.608Z,2.70
2023-03-21T13:40:22.317Z,2.40
2023-03-21T13:42:59.544Z,1.77
2023-03-21T13:45:44.866Z,3.05
2023-03-21T13:48:31.188Z,2.67
2023-03-21T13:51:05.676Z,2.50
2023-03-21T13:53:45.670Z,3.20
2023-03-21T13:56:12.076Z,2.65
2023-03-21T13:58:50.226Z,2.83
2023-03-21T14:01:26.913Z,2.88
2023-03-21T14:03:59.528Z,1.33
2023-03-21T14:06:36.197Z,3.35
2023-03-21T14:09:04.185Z,2.17
2023-03-21T14:11:33.507Z,2.83
2023-03-21T14:14:02.321Z,1.58
2023-03-21T14:16:29.854Z,2.17
2023-03-21T14:19:03.846Z,2.88
2023-03-21T14:21:33.053Z,2.90
2023-03-21T14:24:04.396Z,2.50
2023-03-21T14:26:34.381Z,2.42
2023-03-21T14:29:05.529Z,2.10
2023-03-21T14:31:34.076Z,1.65
2023-03-21T14:34:02.559Z,3.45
2023-03-21T14:36:32.882Z,2.50
2023-03-21T14:39:12.444Z,2.40
2023-03-21T14:41:51.575Z,2.50
2023-03-21T14:44:27.959Z,3.65
2023-03-21T14:47:17.611Z,3.22
2023-03-21T14:49:44.329Z,1.73
2023-03-21T14:52:20.499Z,2.53
2023-03-21T14:54:48.188Z,2.78
2023-03-21T14:57:20.725Z,1.58
2023-03-21T14:59:52.115Z,3.17
2023-03-21T15:02:23.639Z,2.40
2023-03-21T15:04:53.434Z,2.15
2023-03-21T15:07:37.984Z,1.65
2023-03-21T15:10:17.260Z,3.35
2023-03-21T15:12:55.390Z,3.75
2023-03-21T15:15:26.071Z,3.90
2023-03-21T15:17:56.871Z,2.50
2023-03-21T15:20:27.757Z,1.55
2023-03-21T15:23:03.567Z,2.70
2023-03-21T15:25:34.688Z,2.08
2023-03-21T15:28:02.035Z,2.03
2023-03-21T15:30:31.223Z,2.40
2023-03-21T15:33:05.376Z,3.35
2023-03-21T15:35:41.880Z,2.78
2023-03-21T15:38:22.665Z,2.10
2023-03-21T15:40:49.225Z,1.55
2023-03-21T15:43:16.784Z,2.25
2023-03-21T15:45:54.870Z,3.58
2023-03-21T15:48:26.392Z,2.05
2023-03-21T15:51:04.992Z,2.33
2023-03-21T15:53:33.688Z,2.50
2023-03-21T15:56:04.534Z,2.85
2023-03-21T15:58:43.955Z,2.17
2023-03-21T16:01:18.091Z,2.72
2023-03-21T16:03:47.941Z,3.28
2023-03-21T16:06:25.693Z,2.38
2023-03-21T16:09:03.425Z,4.07
2023-03-21T16:11:39.920Z,3.58
2023-03-21T16:14:07.076Z,2.30
2023-03-21T16:16:33.720Z,3.28
2023-03-21T16:19:01.399Z,2.45
2023-03-21T16:21:30.663Z,4.30
2023-03-21T16:23:58.159Z,2.70
2023-03-21T16:26:27.587Z,2.75
2023-03-21T16:28:54.930Z,2.80
2023-03-21T16:31:23.782Z,3.08
2023-03-21T16:33:51.465Z,2.78
2023-03-21T16:36:19.525Z,3.78
2023-03-21T16:38:47.658Z,4.55
2023-03-21T16:41:15.189Z,4.10
2023-03-21T16:43:45.460Z,3.67
2023-03-21T16:46:24.222Z,3.08
2023-03-21T16:48:53.591Z,2.53
2023-03-21T16:51:29.274Z,3.05
2023-03-21T16:53:57.262Z,4.25
2023-03-21T16:56:26.969Z,1.55
2023-03-21T16:58:54.477Z,1.67
2023-03-21T17:01:25.987Z,2.30
2023-03-21T17:03:53.591Z,2.85
2023-03-21T17:06:24.287Z,3.45
2023-03-21T17:08:51.840Z,4.50
2023-03-21T17:11:20.754Z,1.73
2023-03-21T17:13:52.480Z,3.70
2023-03-21T17:16:23.829Z,4.82
2023-03-21T17:18:51.679Z,3.15
2023-03-21T17:21:23.711Z,4.05
2023-03-21T17:23:52.367Z,3.97
2023-03-21T17:26:22.240Z,4.85
2023-03-21T17:28:53.639Z,4.40
2023-03-21T17:31:23.831Z,2.30
2023-03-21T17:33:51.189Z,2.42
2023-03-21T17:36:28.053Z,5.05
2023-03-21T17:38:55.418Z,3.65
2023-03-21T17:41:22.725Z,1.73
2023-03-21T17:43:50.956Z,6.78
2023-03-21T17:46:21.055Z,7.20
2023-03-21T17:48:48.127Z,5.78
2023-03-21T17:51:16.403Z,3.58
2023-03-21T17:53:44.387Z,5.22
2023-03-21T17:56:16.344Z,4.90
2023-03-21T17:58:42.963Z,5.20
2023-03-21T18:01:09.777Z,5.85
2023-03-21T18:03:36.325Z,6.20
2023-03-21T18:06:03.877Z,2.92
2023-03-21T18:08:30.354Z,6.00
2023-03-21T18:10:56.851Z,5.38
2023-03-21T18:13:23.837Z,1.65
2023-03-21T18:15:50.662Z,5.13
2023-03-21T18:18:17.268Z,6.40
2023-03-21T18:20:53.935Z,4.93
2023-03-21T18:23:21.218Z,5.63
2023-03-21T18:25:47.858Z,6.05
2023-03-21T18:28:19.451Z,5.53
2023-03-21T18:33:36.976Z,4.22
2023-03-21T18:36:07.535Z,2.47
2023-03-21T18:38:35.470Z,3.70
2023-03-21T18:41:02.003Z,5.05
2023-03-21T18:46:15.874Z,4.03
2023-03-21T18:48:42.778Z,5.30
2023-03-21T18:51:12.393Z,6.22
2023-03-21T18:53:39.265Z,6.50
2023-03-21T18:56:09.836Z,6.00
2023-03-21T18:58:37.284Z,3.92
2023-03-21T19:01:04.993Z,6.20
2023-03-21T19:03:36.757Z,6.55
2023-03-21T19:06:06.389Z,6.10
2023-03-21T19:08:36.984Z,5.07
2023-03-21T19:11:06.791Z,5.72
2023-03-21T19:13:34.470Z,5.93
2023-03-21T19:16:02.569Z,5.53
2023-03-21T19:18:50.341Z,3.80
2023-03-21T19:21:21.504Z,5.65
2023-03-21T19:24:23.002Z,7.40
2023-03-21T19:26:34.602Z,7.63
2023-03-21T19:29:01.282Z,7.03
2023-03-21T19:31:27.863Z,1.98
2023-03-21T19:33:54.546Z,5.95
2023-03-21T19:36:22.948Z,7.72
2023-03-21T19:38:50.416Z,7.50
2023-03-21T19:41:17.515Z,7.07
2023-03-21T19:43:53.552Z,8.15
2023-03-21T19:46:24.460Z,6.53
2023-03-21T19:48:51.627Z,8.15
2023-03-21T19:51:28.317Z,6.40
2023-03-21T19:53:56.269Z,6.57
2023-03-21T19:56:26.477Z,6.22
2023-03-21T19:58:54.665Z,6.43
2023-03-21T20:01:21.861Z,6.60
2023-03-21T20:03:48.489Z,5.80
2023-03-21T20:06:15.014Z,5.82
2023-03-21T20:11:28.170Z,6.10
2023-03-21T20:13:54.721Z,6.20
2023-03-21T20:16:21.466Z,6.57
2023-03-21T20:18:48.093Z,5.43
2023-03-21T20:21:17.917Z,6.43
2023-03-21T20:23:50.808Z,7.70
2023-03-21T20:26:17.692Z,5.82
2023-03-21T20:28:56.633Z,6.57
2023-03-21T20:31:32.699Z,10.07
2023-03-21T20:33:59.577Z,7.70
2023-03-21T20:36:40.063Z,7.38
2023-03-21T20:39:07.587Z,7.10
2023-03-21T20:41:34.153Z,5.85
2023-03-21T20:46:49.764Z,5.95
2023-03-21T20:49:16.436Z,6.03
2023-03-21T20:54:30.084Z,6.28
2023-03-21T20:56:57.200Z,6.75
2023-03-21T20:59:27.683Z,7.00
2023-03-21T21:01:58.010Z,6.20
2023-03-21T21:04:48.080Z,5.85
2023-03-21T21:07:20.370Z,6.55
2023-03-21T21:09:47.820Z,6.97
2023-03-21T21:12:16.349Z,5.38
2023-03-21T21:14:43.721Z,6.82
2023-03-21T21:17:28.326Z,6.13
2023-03-21T21:19:57.343Z,6.70
2023-03-21T21:22:23.896Z,6.18
2023-03-21T21:24:50.430Z,6.45
2023-03-21T21:27:16.993Z,6.40
2023-03-21T21:29:43.670Z,5.70
2023-03-21T21:32:11.368Z,7.03
2023-03-21T21:34:38.224Z,6.25
2023-03-21T21:37:05.185Z,5.60
2023-03-21T21:39:37.777Z,6.65
2023-03-21T21:42:05.095Z,6.40
2023-03-21T21:44:31.742Z,5.63
2023-03-21T21:46:58.276Z,6.03
2023-03-21T21:49:25.076Z,7.10
2023-03-21T21:51:51.627Z,6.65
2023-03-21T21:54:18.643Z,7.32
2023-03-21T21:56:48.486Z,6.63
2023-03-21T21:59:22.024Z,6.45
2023-03-21T22:01:51.317Z,4.80
2023-03-21T22:04:18.935Z,5.13
2023-03-21T22:06:47.509Z,6.75
2023-03-21T22:09:15.679Z,6.30
2023-03-21T22:11:42.275Z,6.60
2023-03-21T22:14:08.796Z,6.20
2023-03-21T22:16:35.324Z,6.80
2023-03-21T22:19:01.836Z,5.82
2023-03-21T22:21:28.397Z,5.85
2023-03-21T22:23:54.856Z,6.35
2023-03-21T22:26:21.470Z,6.38
2023-03-21T22:28:47.997Z,6.45
2023-03-21T22:31:16.059Z,6.05
2023-03-21T22:33:45.552Z,5.75
2023-03-21T22:36:12.198Z,6.00
2023-03-21T22:38:38.837Z,6.18
2023-03-21T22:41:06.602Z,5.75
2023-03-21T22:43:34.236Z,6.22
2023-03-21T22:46:03.251Z,5.65
2023-03-21T22:48:30.877Z,2.83
2023-03-21T22:50:58.953Z,5.38
2023-03-21T22:53:25.929Z,6.00
2023-03-21T22:55:52.407Z,5.05
2023-03-21T22:58:19.143Z,5.20
2023-03-21T23:00:46.040Z,3.67
2023-03-21T23:03:14.522Z,5.80
2023-03-21T23:05:42.073Z,6.13
2023-03-21T23:08:09.236Z,4.65
2023-03-21T23:10:40.923Z,1.58
2023-03-21T23:13:07.698Z,2.50
2023-03-21T23:15:34.375Z,4.85
2023-03-21T23:18:01.060Z,4.80
2023-03-21T23:20:27.781Z,1.80
2023-03-21T23:22:54.255Z,2.95
2023-03-21T23:25:21.035Z,4.85
2023-03-21T23:27:47.821Z,5.30
2023-03-21T23:30:14.555Z,2.13
2023-03-21T23:32:41.393Z,3.67
2023-03-21T23:35:08.766Z,5.40
2023-03-21T23:37:35.264Z,2.03
2023-03-21T23:40:02.227Z,2.90
2023-03-21T23:42:30.104Z,6.72
2023-03-21T23:44:57.240Z,5.47
2023-03-21T23:47:23.858Z,4.47
2023-03-21T23:49:52.798Z,5.22
2023-03-21T23:52:19.351Z,5.10
2023-03-21T23:54:45.832Z,2.50
2023-03-21T23:57:12.350Z,5.75
2023-03-21T23:59:38.809Z,2.65
